sensor_id;sensor_type;location;lat;lon;timestamp;temperature;humidity
24462;DHT22;12631;50.860;5.714;2022-09-16T16:05:51;11.40;99.90
24462;DHT22;12631;50.860;5.714;2022-09-16T16:08:39;11.30;99.90
24462;DHT22;12631;50.860;5.714;2022-09-16T16:11:08;11.40;99.90
24462;DHT22;12631;50.860;5.714;2022-09-16T16:13:35;11.40;99.90
24462;DHT22;12631;50.860;5.714;2022-09-16T16:16:03;11.50;99.90
24462;DHT22;12631;50.860;5.714;2022-09-16T16:18:31;11.60;99.90
24462;DHT22;12631;50.860;5.714;2022-09-16T16:21:03;11.70;99.90
24462;DHT22;12631;50.860;5.714;2022-09-16T16:23:31;11.90;99.90
24462;DHT22;12631;50.860;5.714;2022-09-16T16:25:59;11.90;99.90
24462;DHT22;12631;50.860;5.714;2022-09-16T16:28:27;11.90;99.90
24462;DHT22;12631;50.860;5.714;2022-09-16T16:31:07;11.90;99.90
24462;DHT22;12631;50.860;5.714;2022-09-16T16:33:34;11.90;99.90
24462;DHT22;12631;50.860;5.714;2022-09-16T16:36:04;11.90;99.90
24462;DHT22;12631;50.860;5.714;2022-09-16T16:38:31;11.90;99.90
24462;DHT22;12631;50.860;5.714;2022-09-16T16:40:58;11.90;99.90
24462;DHT22;12631;50.860;5.714;2022-09-16T16:43:26;11.90;99.90
24462;DHT22;12631;50.860;5.714;2022-09-16T16:45:54;11.90;99.90
24462;DHT22;12631;50.860;5.714;2022-09-16T16:48:22;11.80;99.90
24462;DHT22;12631;50.860;5.714;2022-09-16T16:51:00;11.90;99.90
24462;DHT22;12631;50.860;5.714;2022-09-16T16:53:30;12.00;99.90
24462;DHT22;12631;50.860;5.714;2022-09-16T16:56:02;12.00;99.90
24462;DHT22;12631;50.860;5.714;2022-09-16T16:58:31;11.90;99.90
24462;DHT22;12631;50.860;5.714;2022-09-16T17:01:06;11.90;99.90
24462;DHT22;12631;50.860;5.714;2022-09-16T17:03:34;11.80;99.90
24462;DHT22;12631;50.860;5.714;2022-09-16T17:06:01;11.80;99.90
24462;DHT22;12631;50.860;5.714;2022-09-16T17:08:30;11.80;99.90
24462;DHT22;12631;50.860;5.714;2022-09-16T17:11:05;11.80;99.90
24462;DHT22;12631;50.860;5.714;2022-09-16T17:13:33;11.80;99.90
24462;DHT22;12631;50.860;5.714;2022-09-16T17:16:00;11.80;99.90
24462;DHT22;12631;50.860;5.714;2022-09-16T17:18:27;11.80;99.90
24462;DHT22;12631;50.860;5.714;2022-09-16T17:21:00;11.80;99.90
24462;DHT22;12631;50.860;5.714;2022-09-16T17:23:28;11.80;99.90
24462;DHT22;12631;50.860;5.714;2022-09-16T17:25:57;11.80;99.90
24462;DHT22;12631;50.860;5.714;2022-09-16T17:28:24;11.80;99.90
24462;DHT22;12631;50.860;5.714;2022-09-16T17:30:51;11.90;99.90
24462;DHT22;12631;50.860;5.714;2022-09-16T17:33:18;11.80;99.90
24462;DHT22;12631;50.860;5.714;2022-09-16T17:35:46;11.80;99.90
24462;DHT22;12631;50.860;5.714;2022-09-16T17:38:13;11.80;99.90
24462;DHT22;12631;50.860;5.714;2022-09-16T17:40:40;11.70;99.90
24462;DHT22;12631;50.860;5.714;2022-09-16T17:43:09;11.70;99.90
24462;DHT22;12631;50.860;5.714;2022-09-16T17:45:36;11.60;99.90
24462;DHT22;12631;50.860;5.714;2022-09-16T17:48:03;11.50;99.90
24462;DHT22;12631;50.860;5.714;2022-09-16T17:50:30;11.50;99.90
24462;DHT22;12631;50.860;5.714;2022-09-16T17:52:58;11.50;99.90
24462;DHT22;12631;50.860;5.714;2022-09-16T17:55:25;11.40;99.90
24462;DHT22;12631;50.860;5.714;2022-09-16T17:57:53;11.30;99.90
24462;DHT22;12631;50.860;5.714;2022-09-16T18:00:21;11.30;99.90
24462;DHT22;12631;50.860;5.714;2022-09-16T18:02:49;11.30;99.90
24462;DHT22;12631;50.860;5.714;2022-09-16T18:05:16;11.30;99.90
24462;DHT22;12631;50.860;5.714;2022-09-16T18:07:44;11.30;99.90
24462;DHT22;12631;50.860;5.714;2022-09-16T18:10:11;11.20;99.90
24462;DHT22;12631;50.860;5.714;2022-09-16T18:12:39;11.20;99.90
24462;DHT22;12631;50.860;5.714;2022-09-16T18:15:06;11.10;99.90
24462;DHT22;12631;50.860;5.714;2022-09-16T18:17:35;11.10;99.90
24462;DHT22;12631;50.860;5.714;2022-09-16T18:20:03;11.00;99.90
24462;DHT22;12631;50.860;5.714;2022-09-16T18:22:30;11.00;99.90
24462;DHT22;12631;50.860;5.714;2022-09-16T18:24:57;10.90;99.90
24462;DHT22;12631;50.860;5.714;2022-09-16T18:27:24;10.90;99.90
24462;DHT22;12631;50.860;5.714;2022-09-16T18:29:51;10.90;99.90
24462;DHT22;12631;50.860;5.714;2022-09-16T18:32:19;10.90;99.90
24462;DHT22;12631;50.860;5.714;2022-09-16T18:34:47;10.90;99.90
24462;DHT22;12631;50.860;5.714;2022-09-16T18:37:15;10.90;99.90
24462;DHT22;12631;50.860;5.714;2022-09-16T18:39:42;10.90;99.90
24462;DHT22;12631;50.860;5.714;2022-09-16T18:42:09;10.80;99.90
24462;DHT22;12631;50.860;5.714;2022-09-16T18:44:37;10.90;99.90
24462;DHT22;12631;50.860;5.714;2022-09-16T18:47:05;11.00;99.90
24462;DHT22;12631;50.860;5.714;2022-09-16T18:49:32;10.90;99.90
24462;DHT22;12631;50.860;5.714;2022-09-16T18:52:01;11.00;99.90
24462;DHT22;12631;50.860;5.714;2022-09-16T18:54:28;11.00;99.90
24462;DHT22;12631;50.860;5.714;2022-09-16T18:56:57;11.00;99.90
24462;DHT22;12631;50.860;5.714;2022-09-16T18:59:26;11.00;99.90
24462;DHT22;12631;50.860;5.714;2022-09-16T19:01:55;11.00;99.90
24462;DHT22;12631;50.860;5.714;2022-09-16T19:04:25;10.90;99.90
24462;DHT22;12631;50.860;5.714;2022-09-16T19:06:54;10.90;99.90
24462;DHT22;12631;50.860;5.714;2022-09-16T19:09:27;10.90;99.90
24462;DHT22;12631;50.860;5.714;2022-09-16T19:11:55;10.80;99.90
24462;DHT22;12631;50.860;5.714;2022-09-16T19:14:22;10.80;99.90
24462;DHT22;12631;50.860;5.714;2022-09-16T19:16:52;10.80;99.90
24462;DHT22;12631;50.860;5.714;2022-09-16T19:19:20;10.70;99.90
24462;DHT22;12631;50.860;5.714;2022-09-16T19:21:48;10.70;99.90
24462;DHT22;12631;50.860;5.714;2022-09-16T19:24:16;10.70;99.90
24462;DHT22;12631;50.860;5.714;2022-09-16T19:26:46;10.70;99.90
24462;DHT22;12631;50.860;5.714;2022-09-16T19:29:15;10.70;99.90
24462;DHT22;12631;50.860;5.714;2022-09-16T19:31:44;10.60;99.90
24462;DHT22;12631;50.860;5.714;2022-09-16T19:34:12;10.70;99.90
24462;DHT22;12631;50.860;5.714;2022-09-16T19:36:41;10.70;99.90
24462;DHT22;12631;50.860;5.714;2022-09-16T19:39:09;10.70;99.90
24462;DHT22;12631;50.860;5.714;2022-09-16T19:41:38;10.70;99.90
24462;DHT22;12631;50.860;5.714;2022-09-16T19:44:10;10.70;99.90
24462;DHT22;12631;50.860;5.714;2022-09-16T19:46:38;10.60;99.90
24462;DHT22;12631;50.860;5.714;2022-09-16T19:49:08;10.60;99.90
24462;DHT22;12631;50.860;5.714;2022-09-16T19:51:36;10.60;99.90
24462;DHT22;12631;50.860;5.714;2022-09-16T19:54:03;10.60;99.90
24462;DHT22;12631;50.860;5.714;2022-09-16T19:56:32;10.60;99.90
24462;DHT22;12631;50.860;5.714;2022-09-16T19:58:59;10.50;99.90
24462;DHT22;12631;50.860;5.714;2022-09-16T20:01:30;10.50;99.90
24462;DHT22;12631;50.860;5.714;2022-09-16T20:03:59;10.60;99.90
24462;DHT22;12631;50.860;5.714;2022-09-16T20:06:29;10.50;99.90
24462;DHT22;12631;50.860;5.714;2022-09-16T20:08:59;10.50;99.90
24462;DHT22;12631;50.860;5.714;2022-09-16T20:11:29;10.50;99.90
24462;DHT22;12631;50.860;5.714;2022-09-16T20:14:00;10.50;99.90
24462;DHT22;12631;50.860;5.714;2022-09-16T20:16:31;10.60;99.90
24462;DHT22;12631;50.860;5.714;2022-09-16T20:19:00;10.60;99.90
24462;DHT22;12631;50.860;5.714;2022-09-16T20:21:28;10.60;99.90
24462;DHT22;12631;50.860;5.714;2022-09-16T20:23:58;10.60;99.90
24462;DHT22;12631;50.860;5.714;2022-09-16T20:26:25;10.60;99.90
24462;DHT22;12631;50.860;5.714;2022-09-16T20:28:54;10.60;99.90
24462;DHT22;12631;50.860;5.714;2022-09-16T20:31:22;10.50;99.90
24462;DHT22;12631;50.860;5.714;2022-09-16T20:33:52;10.50;99.90
24462;DHT22;12631;50.860;5.714;2022-09-16T20:36:22;10.50;99.90
24462;DHT22;12631;50.860;5.714;2022-09-16T20:38:50;10.50;99.90
24462;DHT22;12631;50.860;5.714;2022-09-16T20:41:19;10.40;99.90
24462;DHT22;12631;50.860;5.714;2022-09-16T20:43:47;10.40;99.90
24462;DHT22;12631;50.860;5.714;2022-09-16T20:46:16;10.30;99.90
24462;DHT22;12631;50.860;5.714;2022-09-16T20:48:44;10.30;99.90
24462;DHT22;12631;50.860;5.714;2022-09-16T20:51:16;10.40;99.90
24462;DHT22;12631;50.860;5.714;2022-09-16T20:53:48;10.30;99.90
24462;DHT22;12631;50.860;5.714;2022-09-16T20:56:16;10.30;99.90
24462;DHT22;12631;50.860;5.714;2022-09-16T20:58:44;10.30;99.90
24462;DHT22;12631;50.860;5.714;2022-09-16T21:01:13;10.30;99.90
24462;DHT22;12631;50.860;5.714;2022-09-16T21:03:42;10.30;99.90
24462;DHT22;12631;50.860;5.714;2022-09-16T21:06:13;10.30;99.90
24462;DHT22;12631;50.860;5.714;2022-09-16T21:08:41;10.30;99.90
24462;DHT22;12631;50.860;5.714;2022-09-16T21:11:10;10.30;99.90
24462;DHT22;12631;50.860;5.714;2022-09-16T21:13:39;10.20;99.90
24462;DHT22;12631;50.860;5.714;2022-09-16T21:16:08;10.20;99.90
24462;DHT22;12631;50.860;5.714;2022-09-16T21:18:37;10.20;99.90
24462;DHT22;12631;50.860;5.714;2022-09-16T21:21:07;10.20;99.90
24462;DHT22;12631;50.860;5.714;2022-09-16T21:23:36;10.20;99.90
24462;DHT22;12631;50.860;5.714;2022-09-16T21:26:06;10.20;99.90
24462;DHT22;12631;50.860;5.714;2022-09-16T21:28:34;10.20;99.90
24462;DHT22;12631;50.860;5.714;2022-09-16T21:31:03;10.20;99.90
24462;DHT22;12631;50.860;5.714;2022-09-16T21:33:33;10.10;99.90
24462;DHT22;12631;50.860;5.714;2022-09-16T21:36:02;10.10;99.90
24462;DHT22;12631;50.860;5.714;2022-09-16T21:38:30;10.10;99.90
24462;DHT22;12631;50.860;5.714;2022-09-16T21:41:01;10.10;99.90
24462;DHT22;12631;50.860;5.714;2022-09-16T21:43:31;10.10;99.90
24462;DHT22;12631;50.860;5.714;2022-09-16T21:45:59;10.10;99.90
24462;DHT22;12631;50.860;5.714;2022-09-16T21:48:26;10.20;99.90
24462;DHT22;12631;50.860;5.714;2022-09-16T21:51:01;10.20;99.90
24462;DHT22;12631;50.860;5.714;2022-09-16T21:53:29;10.20;99.90
24462;DHT22;12631;50.860;5.714;2022-09-16T21:56:01;10.20;99.90
24462;DHT22;12631;50.860;5.714;2022-09-16T21:58:28;10.30;99.90
24462;DHT22;12631;50.860;5.714;2022-09-16T22:01:05;10.20;99.90
24462;DHT22;12631;50.860;5.714;2022-09-16T22:03:34;10.30;99.90
24462;DHT22;12631;50.860;5.714;2022-09-16T22:06:02;10.30;99.90
24462;DHT22;12631;50.860;5.714;2022-09-16T22:08:30;10.30;99.90
24462;DHT22;12631;50.860;5.714;2022-09-16T22:11:04;10.30;99.90
24462;DHT22;12631;50.860;5.714;2022-09-16T22:13:32;10.20;99.90
24462;DHT22;12631;50.860;5.714;2022-09-16T22:16:00;10.30;99.90
24462;DHT22;12631;50.860;5.714;2022-09-16T22:18:29;10.30;99.90
24462;DHT22;12631;50.860;5.714;2022-09-16T22:21:01;10.20;99.90
24462;DHT22;12631;50.860;5.714;2022-09-16T22:23:28;10.20;99.90
24462;DHT22;12631;50.860;5.714;2022-09-16T22:25:56;10.20;99.90
24462;DHT22;12631;50.860;5.714;2022-09-16T22:28:24;10.10;99.90
24462;DHT22;12631;50.860;5.714;2022-09-16T22:30:52;10.20;99.90
24462;DHT22;12631;50.860;5.714;2022-09-16T22:33:19;10.20;99.90
24462;DHT22;12631;50.860;5.714;2022-09-16T22:35:46;10.20;99.90
24462;DHT22;12631;50.860;5.714;2022-09-16T22:38:14;10.20;99.90
24462;DHT22;12631;50.860;5.714;2022-09-16T22:40:44;10.10;99.90
24462;DHT22;12631;50.860;5.714;2022-09-16T22:43:11;10.10;99.90
24462;DHT22;12631;50.860;5.714;2022-09-16T22:45:40;10.10;99.90
24462;DHT22;12631;50.860;5.714;2022-09-16T22:48:09;10.10;99.90
24462;DHT22;12631;50.860;5.714;2022-09-16T22:50:37;10.10;99.90
24462;DHT22;12631;50.860;5.714;2022-09-16T22:53:05;10.10;99.90
24462;DHT22;12631;50.860;5.714;2022-09-16T22:55:33;10.00;99.90
24462;DHT22;12631;50.860;5.714;2022-09-16T22:58:11;10.00;99.90
24462;DHT22;12631;50.860;5.714;2022-09-16T23:00:43;10.00;99.90
24462;DHT22;12631;50.860;5.714;2022-09-16T23:03:14;10.00;99.90
24462;DHT22;12631;50.860;5.714;2022-09-16T23:05:42;10.10;99.90
24462;DHT22;12631;50.860;5.714;2022-09-16T23:08:10;10.00;99.90
24462;DHT22;12631;50.860;5.714;2022-09-16T23:10:41;10.00;99.90
24462;DHT22;12631;50.860;5.714;2022-09-16T23:13:08;10.00;99.90
24462;DHT22;12631;50.860;5.714;2022-09-16T23:15:37;10.00;99.90
24462;DHT22;12631;50.860;5.714;2022-09-16T23:18:08;10.00;99.90
24462;DHT22;12631;50.860;5.714;2022-09-16T23:20:36;10.00;99.90
24462;DHT22;12631;50.860;5.714;2022-09-16T23:23:04;10.00;99.90
24462;DHT22;12631;50.860;5.714;2022-09-16T23:25:33;10.00;99.90
24462;DHT22;12631;50.860;5.714;2022-09-16T23:28:01;10.00;99.90
24462;DHT22;12631;50.860;5.714;2022-09-16T23:30:29;10.00;99.90
24462;DHT22;12631;50.860;5.714;2022-09-16T23:32:56;10.00;99.90
24462;DHT22;12631;50.860;5.714;2022-09-16T23:35:25;10.00;99.90
24462;DHT22;12631;50.860;5.714;2022-09-16T23:37:53;10.00;99.90
24462;DHT22;12631;50.860;5.714;2022-09-16T23:40:22;10.00;99.90
24462;DHT22;12631;50.860;5.714;2022-09-16T23:42:53;10.00;99.90
24462;DHT22;12631;50.860;5.714;2022-09-16T23:45:21;10.10;99.90
24462;DHT22;12631;50.860;5.714;2022-09-16T23:47:48;10.00;99.90
24462;DHT22;12631;50.860;5.714;2022-09-16T23:50:16;10.00;99.90
